createdAt,value
2019-01-12T00:01:13.328Z,45.90
2019-01-12T00:03:43.014Z,42.40
2019-01-12T00:06:13.733Z,37.20
2019-01-12T00:08:43.334Z,37.87
2019-01-12T00:11:13.118Z,46.23
2019-01-12T00:13:42.885Z,34.60
2019-01-12T00:16:12.561Z,40.63
2019-01-12T00:18:42.227Z,49.73
2019-01-12T00:21:11.967Z,38.13
2019-01-12T00:23:41.617Z,42.27
2019-01-12T00:26:11.245Z,59.63
2019-01-12T00:28:40.863Z,45.13
2019-01-12T00:31:10.575Z,42.73
2019-01-12T00:33:40.282Z,36.40
2019-01-12T00:36:10.155Z,44.30
2019-01-12T00:38:39.869Z,45.73
2019-01-12T00:41:09.493Z,44.08
2019-01-12T00:43:39.498Z,44.80
2019-01-12T00:46:09.153Z,38.53
2019-01-12T00:48:38.837Z,49.60
2019-01-12T00:51:08.534Z,51.70
2019-01-12T00:53:38.231Z,38.50
2019-01-12T00:56:07.951Z,45.80
2019-01-12T00:58:37.613Z,45.07
2019-01-12T01:01:07.524Z,36.93
2019-01-12T01:03:37.402Z,43.07
2019-01-12T01:06:07.025Z,36.57
2019-01-12T01:08:36.705Z,58.03
2019-01-12T01:11:06.717Z,43.47
2019-01-12T01:13:36.421Z,44.03
2019-01-12T01:16:06.154Z,35.57
2019-01-12T01:18:35.961Z,45.27
2019-01-12T01:21:06.018Z,41.60
2019-01-12T01:23:35.981Z,43.63
2019-01-12T01:26:05.685Z,44.80
2019-01-12T01:28:35.583Z,30.30
2019-01-12T01:31:05.394Z,41.53
2019-01-12T01:33:34.990Z,42.50
2019-01-12T01:36:04.960Z,42.30
2019-01-12T01:38:34.673Z,38.60
2019-01-12T01:41:05.119Z,43.27
2019-01-12T01:43:34.781Z,36.17
2019-01-12T01:46:05.412Z,32.20
2019-01-12T01:48:35.026Z,44.33
2019-01-12T01:51:05.042Z,47.10
2019-01-12T01:53:34.656Z,41.80
2019-01-12T01:56:05.348Z,43.60
2019-01-12T01:58:34.997Z,46.87
2019-01-12T02:01:05.335Z,45.67
2019-01-12T02:03:35.952Z,43.93
2019-01-12T02:06:05.763Z,38.87
2019-01-12T02:08:35.375Z,39.97
2019-01-12T02:11:05.062Z,41.90
2019-01-12T02:13:34.690Z,38.40
2019-01-12T02:16:04.922Z,36.43
2019-01-12T02:18:34.525Z,43.30
2019-01-12T02:21:05.011Z,33.33
2019-01-12T02:23:34.663Z,32.07
2019-01-12T02:26:05.263Z,37.73
2019-01-12T02:28:34.910Z,39.00
2019-01-12T02:31:05.063Z,36.67
2019-01-12T02:33:34.761Z,28.97
2019-01-12T02:36:05.025Z,33.37
2019-01-12T02:38:34.653Z,37.40
2019-01-12T02:41:05.074Z,33.23
2019-01-12T02:43:34.790Z,35.90
2019-01-12T02:46:05.035Z,39.97
2019-01-12T02:48:34.762Z,39.13
2019-01-12T02:51:04.993Z,42.20
2019-01-12T02:53:34.676Z,29.53
2019-01-12T02:56:05.349Z,38.07
2019-01-12T02:58:35.307Z,42.20
2019-01-12T03:01:05.034Z,39.60
2019-01-12T03:03:34.673Z,37.43
2019-01-12T03:06:04.994Z,43.87
2019-01-12T03:08:34.702Z,43.00
2019-01-12T03:11:05.021Z,33.33
2019-01-12T03:13:34.794Z,33.43
2019-01-12T03:16:05.461Z,24.57
2019-01-12T03:18:35.155Z,26.33
2019-01-12T03:21:04.995Z,34.90
2019-01-12T03:23:34.702Z,28.23
2019-01-12T03:26:05.027Z,41.13
2019-01-12T03:28:34.710Z,32.17
2019-01-12T03:31:04.980Z,38.23
2019-01-12T03:33:34.590Z,33.80
2019-01-12T03:36:05.194Z,45.13
2019-01-12T03:38:34.881Z,23.67
2019-01-12T03:41:05.006Z,41.53
2019-01-12T03:43:34.709Z,31.90
2019-01-12T03:46:05.199Z,29.17
2019-01-12T03:48:35.018Z,24.80
2019-01-12T03:51:05.253Z,38.90
2019-01-12T03:53:34.989Z,34.67
2019-01-12T03:56:05.080Z,34.30
2019-01-12T03:58:34.728Z,35.50
2019-01-12T04:01:04.955Z,37.17
2019-01-12T04:03:34.683Z,32.27
2019-01-12T04:06:05.009Z,33.87
2019-01-12T04:08:34.762Z,31.67
2019-01-12T04:11:05.011Z,30.20
2019-01-12T04:13:34.711Z,32.47
2019-01-12T04:16:04.905Z,26.73
2019-01-12T04:18:34.631Z,21.57
2019-01-12T04:21:05.003Z,31.37
2019-01-12T04:23:34.697Z,19.07
2019-01-12T04:26:04.847Z,25.70
2019-01-12T04:28:34.545Z,17.40
2019-01-12T04:31:04.853Z,27.27
2019-01-12T04:33:35.819Z,21.10
2019-01-12T04:36:05.525Z,23.17
2019-01-12T04:38:35.186Z,25.50
2019-01-12T04:41:04.938Z,20.83
2019-01-12T04:43:34.587Z,22.27
2019-01-12T04:46:04.919Z,22.10
2019-01-12T04:48:34.538Z,14.87
2019-01-12T04:51:05.003Z,21.90
2019-01-12T04:53:34.667Z,24.27
2019-01-12T04:56:05.073Z,25.03
2019-01-12T04:58:34.707Z,23.00
2019-01-12T05:01:05.055Z,20.53
2019-01-12T05:03:34.746Z,24.37
2019-01-12T05:06:04.988Z,23.87
2019-01-12T05:08:34.689Z,19.93
2019-01-12T05:11:04.955Z,19.60
2019-01-12T05:13:34.626Z,26.77
2019-01-12T05:16:04.985Z,21.73
2019-01-12T05:18:34.614Z,35.03
2019-01-12T05:21:05.014Z,17.57
2019-01-12T05:23:35.689Z,20.40
2019-01-12T05:26:05.454Z,25.80
2019-01-12T05:28:35.101Z,28.33
2019-01-12T05:31:05.074Z,20.17
2019-01-12T05:33:34.792Z,24.77
2019-01-12T05:36:04.853Z,25.60
2019-01-12T05:38:34.468Z,24.60
2019-01-12T05:41:05.009Z,24.45
2019-01-12T05:43:34.749Z,25.20
2019-01-12T05:46:05.001Z,22.90
2019-01-12T05:48:34.630Z,18.57
2019-01-12T05:51:04.998Z,26.93
2019-01-12T05:53:34.682Z,25.40
2019-01-12T05:56:04.997Z,21.97
2019-01-12T05:58:34.609Z,27.80
2019-01-12T06:01:05.057Z,26.23
2019-01-12T06:03:34.758Z,25.13
2019-01-12T06:06:04.910Z,21.60
2019-01-12T06:08:34.574Z,26.83
2019-01-12T06:11:04.954Z,17.53
2019-01-12T06:13:34.670Z,24.47
2019-01-12T06:16:04.933Z,14.07
2019-01-12T06:18:34.654Z,18.73
2019-01-12T06:21:04.999Z,21.13
2019-01-12T06:23:34.674Z,14.37
2019-01-12T06:26:04.997Z,16.33
2019-01-12T06:28:34.594Z,14.83
2019-01-12T06:31:04.961Z,12.90
2019-01-12T06:33:34.742Z,15.47
2019-01-12T06:36:05.045Z,13.03
2019-01-12T06:38:34.810Z,13.97
2019-01-12T06:41:05.023Z,7.67
2019-01-12T06:43:34.730Z,10.47
2019-01-12T06:46:05.147Z,8.10
2019-01-12T06:48:34.862Z,8.40
2019-01-12T06:51:04.909Z,5.70
2019-01-12T06:53:34.570Z,11.27
2019-01-12T06:56:10.853Z,7.03
2019-01-12T06:58:36.347Z,6.70
2019-01-12T07:01:06.002Z,5.20
2019-01-12T07:03:35.672Z,5.37
2019-01-12T07:06:05.589Z,7.63
2019-01-12T07:08:35.369Z,11.00
2019-01-12T07:11:05.155Z,6.03
2019-01-12T07:13:34.865Z,4.97
2019-01-12T07:16:04.982Z,5.17
2019-01-12T07:18:34.634Z,9.90
2019-01-12T07:21:05.102Z,7.73
2019-01-12T07:23:34.793Z,6.73
2019-01-12T07:26:04.983Z,4.27
2019-01-12T07:28:34.589Z,6.70
2019-01-12T07:31:05.151Z,6.20
2019-01-12T07:33:34.841Z,8.63
2019-01-12T07:36:04.976Z,8.77
2019-01-12T07:38:34.582Z,11.80
2019-01-12T07:41:04.970Z,9.50
2019-01-12T07:43:35.780Z,7.63
2019-01-12T07:46:05.678Z,12.37
2019-01-12T07:48:35.666Z,11.90
2019-01-12T07:51:05.323Z,12.57
2019-01-12T07:53:35.165Z,7.57
2019-01-12T07:56:05.337Z,8.93
2019-01-12T07:58:35.046Z,10.20
2019-01-12T08:01:04.993Z,9.27
2019-01-12T08:03:34.688Z,8.57
2019-01-12T08:06:04.837Z,8.90
2019-01-12T08:08:34.570Z,9.53
2019-01-12T08:11:05.087Z,12.40
2019-01-12T08:13:34.756Z,13.57
2019-01-12T08:16:05.054Z,9.33
2019-01-12T08:18:34.767Z,9.27
2019-01-12T08:21:05.494Z,7.67
2019-01-12T08:23:35.230Z,11.93
2019-01-12T08:26:05.098Z,12.00
2019-01-12T08:28:34.721Z,8.50
2019-01-12T08:31:05.014Z,4.73
2019-01-12T08:33:34.653Z,9.57
2019-01-12T08:36:04.950Z,5.67
2019-01-12T08:38:34.678Z,6.43
2019-01-12T08:41:05.480Z,4.70
2019-01-12T08:43:35.219Z,8.70
2019-01-12T08:46:05.221Z,6.20
2019-01-12T08:48:34.871Z,5.33
2019-01-12T08:51:05.035Z,7.33
2019-01-12T08:53:34.791Z,6.03
2019-01-12T08:56:04.863Z,4.90
2019-01-12T08:58:34.494Z,14.23
2019-01-12T09:01:05.239Z,7.00
2019-01-12T09:03:34.882Z,9.43
2019-01-12T09:06:05.023Z,10.57
2019-01-12T09:08:34.740Z,5.30
2019-01-12T09:11:05.150Z,7.23
2019-01-12T09:13:34.859Z,4.03
2019-01-12T09:16:04.881Z,4.80
2019-01-12T09:18:34.526Z,6.47
2019-01-12T09:21:05.086Z,8.00
2019-01-12T09:23:34.697Z,13.73
2019-01-12T09:26:04.853Z,3.57
2019-01-12T09:28:34.524Z,10.07
2019-01-12T09:31:04.998Z,8.03
2019-01-12T09:33:34.581Z,3.60
2019-01-12T09:36:04.855Z,8.17
2019-01-12T09:38:34.518Z,6.30
2019-01-12T09:41:04.945Z,5.17
2019-01-12T09:43:34.575Z,7.30
2019-01-12T09:46:05.250Z,5.90
2019-01-12T09:48:34.871Z,8.50
2019-01-12T09:51:04.985Z,4.83
2019-01-12T09:53:34.570Z,4.73
2019-01-12T09:56:04.910Z,11.13
2019-01-12T09:58:34.522Z,4.57
2019-01-12T10:01:04.941Z,8.77
2019-01-12T10:03:34.550Z,7.43
2019-01-12T10:06:05.172Z,4.90
2019-01-12T10:08:34.757Z,4.53
2019-01-12T10:11:05.027Z,5.20
2019-01-12T10:13:34.728Z,7.70
2019-01-12T10:16:04.897Z,2.30
2019-01-12T10:18:34.549Z,2.13
2019-01-12T10:21:04.926Z,10.30
2019-01-12T10:23:34.584Z,6.00
2019-01-12T10:26:04.961Z,3.03
2019-01-12T10:28:34.599Z,4.63
2019-01-12T10:31:04.881Z,4.20
2019-01-12T10:33:34.646Z,4.53
2019-01-12T10:36:05.809Z,4.37
2019-01-12T10:38:35.514Z,3.23
2019-01-12T10:41:05.408Z,5.40
2019-01-12T10:43:35.118Z,10.63
2019-01-12T10:46:05.140Z,6.67
2019-01-12T10:48:34.752Z,3.63
2019-01-12T10:51:05.644Z,3.23
2019-01-12T10:53:35.582Z,7.07
2019-01-12T10:56:05.607Z,4.73
2019-01-12T10:58:35.219Z,6.73
2019-01-12T11:01:05.335Z,4.37
2019-01-12T11:03:34.934Z,4.93
2019-01-12T11:06:05.230Z,5.30
2019-01-12T11:08:34.874Z,5.07
2019-01-12T11:11:05.601Z,5.47
2019-01-12T11:13:35.459Z,4.17
2019-01-12T11:16:05.340Z,4.53
2019-01-12T11:18:34.995Z,3.73
2019-01-12T11:21:04.891Z,4.43
2019-01-12T11:23:37.543Z,4.33
2019-01-12T11:26:07.313Z,5.93
2019-01-12T11:28:36.988Z,6.47
2019-01-12T11:31:07.212Z,7.60
2019-01-12T11:33:36.890Z,5.70
2019-01-12T11:36:06.597Z,4.40
2019-01-12T11:38:36.285Z,6.00
2019-01-12T11:41:05.972Z,5.47
2019-01-12T11:43:35.661Z,3.83
2019-01-12T11:46:05.451Z,4.33
2019-01-12T11:48:35.081Z,4.03
2019-01-12T11:51:13.446Z,3.80
2019-01-12T11:53:43.174Z,4.57
2019-01-12T11:56:12.899Z,4.93
2019-01-12T11:58:42.602Z,2.80
2019-01-12T12:01:12.598Z,3.25
2019-01-12T12:03:42.385Z,4.40
2019-01-12T12:06:12.129Z,3.07
2019-01-12T12:08:41.845Z,4.47
2019-01-12T12:11:11.599Z,3.17
2019-01-12T12:13:41.269Z,3.77
2019-01-12T12:16:10.873Z,3.37
2019-01-12T12:18:40.582Z,3.07
2019-01-12T12:21:10.210Z,2.95
2019-01-12T12:23:39.968Z,3.33
2019-01-12T12:26:10.565Z,3.70
2019-01-12T12:28:40.296Z,4.27
2019-01-12T12:31:09.953Z,2.70
2019-01-12T12:33:39.623Z,4.90
2019-01-12T12:36:09.367Z,2.27
2019-01-12T12:38:38.962Z,2.03
2019-01-12T12:41:08.674Z,2.90
2019-01-12T12:43:38.347Z,1.57
2019-01-12T12:46:08.290Z,1.53
2019-01-12T12:48:37.905Z,2.27
2019-01-12T12:51:07.539Z,2.03
2019-01-12T12:53:37.231Z,1.77
2019-01-12T12:56:06.892Z,1.37
2019-01-12T12:58:36.551Z,1.93
2019-01-12T13:01:06.253Z,3.00
2019-01-12T13:03:35.869Z,2.17
2019-01-12T13:06:05.767Z,1.70
2019-01-12T13:08:35.385Z,1.40
2019-01-12T13:11:05.261Z,1.73
2019-01-12T13:13:34.998Z,1.70
2019-01-12T13:16:05.190Z,2.13
2019-01-12T13:18:34.843Z,1.67
2019-01-12T13:21:05.018Z,2.70
2019-01-12T13:23:34.994Z,1.80
2019-01-12T13:26:04.961Z,2.20
2019-01-12T13:28:34.606Z,2.30
2019-01-12T13:31:05.095Z,3.10
2019-01-12T13:33:34.743Z,3.73
2019-01-12T13:36:07.344Z,4.97
2019-01-12T13:38:37.029Z,2.87
2019-01-12T13:41:06.850Z,2.53
2019-01-12T13:43:36.484Z,3.03
2019-01-12T13:46:06.264Z,4.13
2019-01-12T13:48:35.875Z,3.73
2019-01-12T13:51:05.632Z,4.00
2019-01-12T13:53:35.334Z,3.73
2019-01-12T13:56:05.170Z,3.70
2019-01-12T13:58:34.831Z,4.33
2019-01-12T14:01:05.202Z,4.23
2019-01-12T14:03:34.861Z,8.63
2019-01-12T14:06:05.127Z,6.17
2019-01-12T14:08:34.825Z,5.20
2019-01-12T14:11:04.934Z,3.57
2019-01-12T14:13:34.639Z,4.03
2019-01-12T14:16:05.002Z,6.13
2019-01-12T14:18:34.646Z,6.27
2019-01-12T14:21:06.083Z,5.70
2019-01-12T14:23:38.493Z,7.27
2019-01-12T14:26:08.273Z,7.80
2019-01-12T14:28:38.019Z,6.10
2019-01-12T14:31:07.745Z,7.60
2019-01-12T14:33:37.663Z,7.23
2019-01-12T14:36:07.478Z,13.80
2019-01-12T14:38:37.157Z,15.60
2019-01-12T14:41:06.897Z,11.57
2019-01-12T14:43:36.679Z,8.40
2019-01-12T14:46:06.309Z,7.80
2019-01-12T14:48:35.914Z,11.77
2019-01-12T14:51:07.289Z,16.33
2019-01-12T14:53:37.066Z,13.47
2019-01-12T14:56:06.877Z,15.77
2019-01-12T14:58:36.673Z,8.47
2019-01-12T15:01:06.649Z,9.13
2019-01-12T15:03:36.832Z,17.40
2019-01-12T15:06:06.567Z,10.47
2019-01-12T15:08:36.237Z,10.63
2019-01-12T15:11:06.024Z,15.20
2019-01-12T15:13:37.525Z,14.87
2019-01-12T15:16:07.474Z,17.13
2019-01-12T15:18:37.110Z,13.57
2019-01-12T15:21:06.854Z,9.67
2019-01-12T15:23:36.524Z,17.80
2019-01-12T15:26:06.230Z,16.67
2019-01-12T15:28:36.063Z,17.87
2019-01-12T15:31:05.759Z,15.83
2019-01-12T15:33:35.577Z,15.70
2019-01-12T15:36:05.428Z,11.33
2019-01-12T15:38:35.235Z,16.93
2019-01-12T15:41:05.029Z,11.87
2019-01-12T15:43:34.736Z,11.00
2019-01-12T15:46:04.902Z,15.33
2019-01-12T15:48:34.558Z,15.20
2019-01-12T15:51:05.287Z,15.63
2019-01-12T15:53:34.894Z,12.13
2019-01-12T15:56:06.219Z,16.53
2019-01-12T15:58:35.850Z,10.70
2019-01-12T16:01:05.610Z,12.17
2019-01-12T16:03:35.271Z,12.00
2019-01-12T16:06:07.840Z,15.90
2019-01-12T16:08:37.545Z,6.13
2019-01-12T16:11:07.184Z,11.43
2019-01-12T16:13:36.958Z,16.07
2019-01-12T16:16:06.700Z,16.73
2019-01-12T16:18:36.389Z,18.73
2019-01-12T16:21:06.126Z,17.87
2019-01-12T16:23:35.929Z,13.20
2019-01-12T16:26:05.652Z,14.40
2019-01-12T16:28:35.432Z,20.90
2019-01-12T16:31:05.253Z,16.60
2019-01-12T16:33:34.952Z,10.30
2019-01-12T16:36:05.049Z,12.57
2019-01-12T16:38:34.753Z,9.90
2019-01-12T16:41:04.973Z,17.93
2019-01-12T16:43:34.662Z,11.50
2019-01-12T16:46:04.975Z,14.80
2019-01-12T16:48:34.685Z,12.20
2019-01-12T16:51:04.845Z,12.27
2019-01-12T16:53:34.461Z,8.40
2019-01-12T16:56:04.933Z,13.45
2019-01-12T16:58:34.595Z,18.50
2019-01-12T17:01:05.414Z,17.37
2019-01-12T17:03:35.041Z,12.33
2019-01-12T17:06:04.926Z,15.53
2019-01-12T17:08:34.648Z,18.07
2019-01-12T17:11:04.961Z,23.70
2019-01-12T17:13:34.718Z,18.20
2019-01-12T17:16:05.237Z,14.18
2019-01-12T17:18:34.870Z,14.27
2019-01-12T17:21:05.027Z,21.17
2019-01-12T17:23:34.766Z,18.87
2019-01-12T17:26:04.999Z,16.23
2019-01-12T17:28:37.394Z,10.53
2019-01-12T17:31:06.186Z,22.20
2019-01-12T17:33:36.203Z,18.03
2019-01-12T17:36:06.034Z,15.47
2019-01-12T17:38:35.722Z,17.70
2019-01-12T17:41:05.523Z,20.73
2019-01-12T17:43:35.113Z,19.07
2019-01-12T17:46:04.911Z,19.93
2019-01-12T17:48:34.637Z,14.37
2019-01-12T17:51:05.092Z,16.53
2019-01-12T17:53:34.820Z,14.07
2019-01-12T17:56:05.395Z,24.00
2019-01-12T17:58:35.014Z,15.17
2019-01-12T18:01:06.000Z,13.13
2019-01-12T18:03:35.654Z,10.83
2019-01-12T18:06:05.483Z,13.63
2019-01-12T18:08:35.182Z,14.17
2019-01-12T18:11:04.947Z,20.57
2019-01-12T18:13:34.630Z,7.90
2019-01-12T18:16:05.138Z,17.40
2019-01-12T18:18:35.092Z,15.30
2019-01-12T18:21:05.115Z,12.03
2019-01-12T18:23:34.906Z,11.27
2019-01-12T18:26:05.097Z,12.33
2019-01-12T18:28:34.814Z,14.20
2019-01-12T18:31:05.085Z,10.87
2019-01-12T18:33:34.750Z,15.37
2019-01-12T18:36:04.881Z,14.07
2019-01-12T18:38:34.566Z,7.73
2019-01-12T18:41:04.963Z,9.27
2019-01-12T18:43:34.687Z,6.13
2019-01-12T18:46:11.877Z,14.00
2019-01-12T18:48:36.286Z,8.00
2019-01-12T18:51:06.086Z,13.20
2019-01-12T18:53:35.666Z,9.27
2019-01-12T18:56:05.530Z,11.13
2019-01-12T18:58:38.202Z,9.13
2019-01-12T19:01:08.330Z,7.53
2019-01-12T19:03:38.009Z,12.27
2019-01-12T19:06:07.734Z,10.73
2019-01-12T19:08:37.430Z,11.03
2019-01-12T19:11:07.094Z,8.37
2019-01-12T19:13:36.769Z,17.63
2019-01-12T19:16:06.703Z,14.47
2019-01-12T19:18:36.412Z,28.13
2019-01-12T19:21:06.415Z,18.67
2019-01-12T19:23:36.213Z,22.17
2019-01-12T19:26:06.046Z,20.10
2019-01-12T19:28:35.768Z,23.80
2019-01-12T19:31:05.561Z,22.57
2019-01-12T19:33:35.383Z,17.00
2019-01-12T19:36:05.102Z,20.27
2019-01-12T19:38:34.890Z,16.37
2019-01-12T19:41:05.100Z,18.10
2019-01-12T19:43:34.809Z,19.40
2019-01-12T19:46:04.891Z,21.73
2019-01-12T19:48:34.581Z,17.97
2019-01-12T19:51:04.942Z,14.47
2019-01-12T19:53:34.599Z,13.47
2019-01-12T19:56:04.929Z,10.40
2019-01-12T19:58:34.666Z,16.20
2019-01-12T20:01:05.061Z,11.23
2019-01-12T20:03:34.787Z,16.20
2019-01-12T20:06:05.063Z,13.23
2019-01-12T20:08:34.720Z,17.00
2019-01-12T20:11:04.938Z,9.20
2019-01-12T20:13:34.689Z,11.50
2019-01-12T20:16:04.907Z,10.80
2019-01-12T20:18:34.585Z,13.40
2019-01-12T20:21:05.016Z,11.57
2019-01-12T20:23:34.697Z,9.57
2019-01-12T20:26:05.068Z,8.83
2019-01-12T20:28:34.759Z,6.70
2019-01-12T20:31:36.631Z,8.07
2019-01-12T20:34:17.034Z,14.33
2019-01-12T20:37:09.735Z,12.80
2019-01-12T20:40:05.263Z,7.90
2019-01-12T20:43:14.274Z,11.70
2019-01-12T20:45:55.408Z,13.10
2019-01-12T20:48:46.530Z,8.77
2019-01-12T20:51:57.280Z,17.77
2019-01-12T20:54:38.678Z,10.73
2019-01-12T20:57:42.083Z,10.37
2019-01-12T21:00:40.238Z,11.57
2019-01-12T21:03:47.830Z,18.03
2019-01-12T21:06:29.411Z,12.25
2019-01-12T21:09:16.383Z,11.50
2019-01-12T21:12:22.509Z,13.33
2019-01-12T21:15:18.900Z,10.57
2019-01-12T21:17:49.799Z,18.93
2019-01-12T21:20:19.614Z,14.30
2019-01-12T21:22:49.384Z,16.53
2019-01-12T21:25:19.120Z,16.40
2019-01-12T21:27:48.742Z,13.93
2019-01-12T21:30:18.498Z,17.27
2019-01-12T21:32:48.177Z,15.27
2019-01-12T21:35:17.782Z,16.57
2019-01-12T21:37:47.535Z,23.90
2019-01-12T21:40:17.302Z,19.77
2019-01-12T21:42:48.234Z,13.03
2019-01-12T21:45:17.991Z,19.73
2019-01-12T21:47:47.665Z,16.13
2019-01-12T21:50:17.578Z,12.50
2019-01-12T21:52:47.367Z,24.33
2019-01-12T21:55:17.069Z,16.55
2019-01-12T21:57:46.734Z,12.83
2019-01-12T22:00:17.118Z,18.13
2019-01-12T22:02:46.878Z,16.70
2019-01-12T22:05:16.647Z,17.17
2019-01-12T22:07:46.338Z,18.07
2019-01-12T22:10:19.325Z,11.53
2019-01-12T22:12:47.622Z,19.23
2019-01-12T22:15:17.341Z,17.77
2019-01-12T22:17:47.026Z,10.53
2019-01-12T22:20:16.910Z,25.93
2019-01-12T22:22:46.549Z,14.20
2019-01-12T22:25:16.166Z,12.77
2019-01-12T22:27:45.874Z,13.23
2019-01-12T22:30:16.895Z,19.47
2019-01-12T22:32:46.778Z,14.07
2019-01-12T22:35:16.851Z,15.77
2019-01-12T22:37:46.533Z,14.20
2019-01-12T22:40:18.083Z,13.13
2019-01-12T22:42:47.801Z,12.10
2019-01-12T22:45:17.459Z,24.40
2019-01-12T22:47:47.247Z,15.63
2019-01-12T22:50:17.141Z,18.52
2019-01-12T22:52:46.775Z,10.00
2019-01-12T22:55:16.590Z,17.73
2019-01-12T22:57:46.289Z,8.80
2019-01-12T23:00:47.338Z,15.10
2019-01-12T23:03:17.945Z,9.97
2019-01-12T23:05:47.711Z,19.37
2019-01-12T23:08:17.700Z,16.87
2019-01-12T23:10:47.399Z,11.57
2019-01-12T23:13:18.113Z,16.17
2019-01-12T23:15:49.365Z,11.10
2019-01-12T23:18:19.085Z,21.93
2019-01-12T23:20:48.729Z,22.07
2019-01-12T23:23:18.482Z,22.87
2019-01-12T23:25:48.177Z,21.10
2019-01-12T23:28:17.849Z,16.17
2019-01-12T23:30:47.530Z,21.20
2019-01-12T23:33:17.167Z,19.77
2019-01-12T23:35:46.841Z,14.00
2019-01-12T23:38:16.539Z,14.63
2019-01-12T23:40:46.185Z,20.10
2019-01-12T23:43:16.057Z,21.20
2019-01-12T23:45:45.649Z,22.70
2019-01-12T23:48:15.273Z,31.90
2019-01-12T23:50:44.896Z,17.53
2019-01-12T23:53:14.565Z,20.40
2019-01-12T23:55:44.190Z,21.70
2019-01-12T23:58:13.930Z,21.20
